createdAt,value
2022-12-17T00:01:15.008Z,-2.90
2022-12-17T00:04:05.343Z,-2.90
2022-12-17T00:06:53.185Z,-2.90
2022-12-17T00:09:50.134Z,-2.90
2022-12-17T00:12:38.333Z,-2.90
2022-12-17T00:15:28.522Z,-2.90
2022-12-17T00:18:19.929Z,-2.90
2022-12-17T00:21:11.924Z,-2.90
2022-12-17T00:24:00.157Z,-2.90
2022-12-17T00:26:48.557Z,-2.80
2022-12-17T00:29:36.456Z,-2.80
2022-12-17T00:32:24.620Z,-2.80
2022-12-17T00:35:12.588Z,-2.80
2022-12-17T00:38:04.118Z,-2.80
2022-12-17T00:40:51.760Z,-2.80
2022-12-17T00:43:39.966Z,-1.80
2022-12-17T00:46:27.786Z,-2.60
2022-12-17T00:49:15.417Z,-2.70
2022-12-17T00:52:03.096Z,-2.70
2022-12-17T00:54:53.409Z,-2.70
2022-12-17T00:57:43.999Z,-2.80
2022-12-17T01:00:31.867Z,-2.80
2022-12-17T01:03:22.390Z,-2.80
2022-12-17T01:06:10.056Z,-2.80
2022-12-17T01:08:57.461Z,-2.80
2022-12-17T01:11:47.793Z,-2.80
2022-12-17T01:14:35.444Z,-2.80
2022-12-17T01:17:23.127Z,-2.80
2022-12-17T01:20:10.953Z,-2.80
2022-12-17T01:22:58.646Z,-2.80
2022-12-17T01:25:46.604Z,-2.80
2022-12-17T01:28:40.547Z,-2.80
2022-12-17T01:31:34.256Z,-2.70
2022-12-17T01:34:22.996Z,-2.70
2022-12-17T01:37:10.547Z,-2.80
2022-12-17T01:39:58.275Z,-2.70
2022-12-17T01:42:53.542Z,-2.80
2022-12-17T01:45:49.668Z,-2.70
2022-12-17T01:48:42.270Z,-2.70
2022-12-17T01:51:30.532Z,-2.80
2022-12-17T01:54:21.650Z,-2.80
2022-12-17T01:57:09.277Z,-2.80
2022-12-17T02:00:02.427Z,-2.80
2022-12-17T02:02:54.379Z,-2.80
2022-12-17T02:05:49.258Z,-2.80
2022-12-17T02:08:47.240Z,-2.80
2022-12-17T02:11:48.736Z,-2.70
2022-12-17T02:14:43.805Z,-2.80
2022-12-17T02:17:37.320Z,-2.80
2022-12-17T02:20:39.590Z,-2.80
2022-12-17T02:23:37.669Z,-2.80
2022-12-17T02:26:29.233Z,-2.80
2022-12-17T02:29:22.248Z,-2.80
2022-12-17T02:32:10.222Z,-2.80
2022-12-17T02:34:59.514Z,-2.80
2022-12-17T02:37:47.409Z,-2.70
2022-12-17T02:40:37.653Z,-2.70
2022-12-17T02:43:26.759Z,-2.70
2022-12-17T02:46:17.124Z,-2.70
2022-12-17T02:49:04.966Z,-2.80
2022-12-17T02:51:53.261Z,-2.70
2022-12-17T02:54:45.112Z,-2.70
2022-12-17T02:57:32.932Z,-2.00
2022-12-17T03:00:22.293Z,-2.60
2022-12-17T03:03:12.481Z,-3.50
2022-12-17T03:06:00.125Z,-2.70
2022-12-17T03:08:47.740Z,-2.80
2022-12-17T03:11:35.411Z,-2.80
2022-12-17T03:14:22.959Z,-2.80
2022-12-17T03:17:10.592Z,-2.80
2022-12-17T03:20:01.124Z,-2.70
2022-12-17T03:22:48.907Z,-2.60
2022-12-17T03:25:36.526Z,-2.60
2022-12-17T03:28:26.310Z,-2.70
2022-12-17T03:31:14.810Z,-2.70
2022-12-17T03:34:02.401Z,-2.70
2022-12-17T03:36:52.668Z,-2.60
2022-12-17T03:39:40.239Z,-2.60
2022-12-17T03:42:27.871Z,-2.60
2022-12-17T03:45:15.579Z,-2.60
2022-12-17T03:48:03.419Z,-2.50
2022-12-17T03:50:51.014Z,-2.60
2022-12-17T03:53:41.115Z,-2.50
2022-12-17T03:56:30.242Z,-2.50
2022-12-17T03:59:23.364Z,-2.50
2022-12-17T04:02:11.172Z,-2.50
2022-12-17T04:04:59.199Z,-2.50
2022-12-17T04:07:46.849Z,-2.50
2022-12-17T04:10:37.185Z,-2.50
2022-12-17T04:13:24.829Z,-2.50
2022-12-17T04:16:12.753Z,-2.40
2022-12-17T04:19:00.548Z,-2.40
2022-12-17T04:21:48.047Z,-2.40
2022-12-17T04:24:35.746Z,-2.40
2022-12-17T04:27:26.034Z,-2.50
2022-12-17T04:30:13.609Z,-2.50
2022-12-17T04:33:01.548Z,-3.10
2022-12-17T04:35:49.330Z,-2.50
2022-12-17T04:38:37.242Z,-2.40
2022-12-17T04:41:25.168Z,-2.40
2022-12-17T04:44:15.219Z,-2.40
2022-12-17T04:47:02.978Z,-2.30
2022-12-17T04:49:50.439Z,-2.30
2022-12-17T04:52:38.153Z,-2.30
2022-12-17T04:55:25.744Z,-2.30
2022-12-17T04:58:17.641Z,-2.30
2022-12-17T05:01:09.880Z,-2.20
2022-12-17T05:03:57.811Z,-2.30
2022-12-17T05:06:45.708Z,-2.30
2022-12-17T05:09:33.412Z,-2.30
2022-12-17T05:12:21.348Z,-2.30
2022-12-17T05:15:08.987Z,-2.20
2022-12-17T05:17:59.772Z,-2.20
2022-12-17T05:20:47.396Z,-2.20
2022-12-17T05:23:35.491Z,-2.20
2022-12-17T05:26:33.131Z,-2.20
2022-12-17T05:29:20.732Z,-2.20
2022-12-17T05:32:08.636Z,-2.30
2022-12-17T05:34:59.435Z,-2.20
2022-12-17T05:37:47.331Z,-2.20
2022-12-17T05:40:35.054Z,-2.20
2022-12-17T05:43:26.211Z,-2.20
2022-12-17T05:46:15.017Z,-3.70
2022-12-17T05:49:02.916Z,-2.10
2022-12-17T05:51:53.508Z,-2.20
2022-12-17T05:54:41.255Z,-2.20
2022-12-17T05:57:28.926Z,-2.30
2022-12-17T06:00:16.510Z,-2.20
2022-12-17T06:03:04.444Z,-2.20
2022-12-17T06:05:52.171Z,-2.20
2022-12-17T06:08:42.273Z,-2.10
2022-12-17T06:11:30.016Z,-2.00
2022-12-17T06:14:17.669Z,-2.00
2022-12-17T06:17:05.596Z,-2.00
2022-12-17T06:19:53.488Z,-2.00
2022-12-17T06:22:41.085Z,-2.10
2022-12-17T06:25:31.450Z,-2.00
2022-12-17T06:28:19.415Z,-1.90
2022-12-17T06:31:07.444Z,-2.00
2022-12-17T06:33:55.918Z,-2.00
2022-12-17T06:36:43.642Z,-1.90
2022-12-17T06:39:31.252Z,-1.90
2022-12-17T06:42:21.615Z,-1.90
2022-12-17T06:45:09.385Z,-2.90
2022-12-17T06:48:09.482Z,-1.80
2022-12-17T06:50:58.025Z,-1.90
2022-12-17T06:53:45.667Z,-2.00
2022-12-17T06:56:33.307Z,-1.90
2022-12-17T06:59:23.606Z,-1.90
2022-12-17T07:02:11.668Z,-1.90
2022-12-17T07:04:59.353Z,-1.90
2022-12-17T07:07:47.209Z,-1.90
2022-12-17T07:10:35.144Z,-1.90
2022-12-17T07:13:24.125Z,-1.90
2022-12-17T07:16:27.484Z,-1.90
2022-12-17T07:19:15.148Z,-1.80
2022-12-17T07:22:02.683Z,-1.80
2022-12-17T07:24:50.293Z,-1.50
2022-12-17T07:27:38.969Z,-1.80
2022-12-17T07:30:27.821Z,-0.70
2022-12-17T07:33:19.894Z,-1.70
2022-12-17T07:36:08.652Z,-1.40
2022-12-17T07:38:56.270Z,-1.50
2022-12-17T07:41:43.825Z,-1.00
2022-12-17T07:44:31.628Z,-1.50
2022-12-17T07:47:19.727Z,-1.50
2022-12-17T07:50:12.392Z,-1.50
2022-12-17T07:53:00.363Z,-1.50
2022-12-17T07:55:48.333Z,-1.50
2022-12-17T07:58:36.408Z,-1.50
2022-12-17T08:01:36.137Z,-1.40
2022-12-17T08:04:23.937Z,-1.50
2022-12-17T08:07:14.518Z,-1.50
2022-12-17T08:10:02.481Z,-1.40
2022-12-17T08:12:50.351Z,-1.40
2022-12-17T08:15:38.051Z,-1.40
2022-12-17T08:18:26.894Z,-1.20
2022-12-17T08:21:15.107Z,-1.20
2022-12-17T08:24:05.558Z,-1.30
2022-12-17T08:26:53.232Z,-1.30
2022-12-17T08:29:41.127Z,-1.30
2022-12-17T08:32:28.906Z,-0.10
2022-12-17T08:35:16.713Z,-1.30
2022-12-17T08:38:16.051Z,-1.30
2022-12-17T08:41:06.753Z,-1.20
2022-12-17T08:43:54.713Z,-0.10
2022-12-17T08:46:42.306Z,-1.10
2022-12-17T08:49:30.080Z,-0.80
2022-12-17T08:52:17.743Z,-0.90
2022-12-17T08:55:14.351Z,-0.60
2022-12-17T08:58:12.058Z,-1.00
2022-12-17T09:01:01.664Z,-0.90
2022-12-17T09:03:49.229Z,-0.80
2022-12-17T09:06:39.285Z,-0.90
2022-12-17T09:09:30.364Z,-0.90
2022-12-17T09:12:17.944Z,-0.80
2022-12-17T09:15:08.757Z,-0.80
2022-12-17T09:17:59.390Z,-0.70
2022-12-17T09:20:47.293Z,-0.60
2022-12-17T09:23:35.499Z,-0.60
2022-12-17T09:26:23.306Z,-0.50
2022-12-17T09:29:11.222Z,-0.40
2022-12-17T09:32:01.412Z,-0.40
2022-12-17T09:34:49.003Z,-0.40
2022-12-17T09:37:36.448Z,-0.40
2022-12-17T09:40:31.303Z,-0.50
2022-12-17T09:43:27.083Z,-0.60
2022-12-17T09:46:24.279Z,-0.50
2022-12-17T09:49:18.633Z,-0.50
2022-12-17T09:52:12.093Z,-0.50
2022-12-17T09:55:04.044Z,-0.40
2022-12-17T09:57:53.102Z,-0.50
2022-12-17T10:00:43.339Z,-0.50
2022-12-17T10:03:34.048Z,-0.50
2022-12-17T10:06:26.946Z,-0.40
2022-12-17T10:09:17.073Z,-1.80
2022-12-17T10:12:04.882Z,-0.40
2022-12-17T10:14:52.757Z,-0.40
2022-12-17T10:17:40.496Z,-0.50
2022-12-17T10:20:36.352Z,-0.50
2022-12-17T10:23:37.788Z,-0.60
2022-12-17T10:26:25.759Z,1.00
2022-12-17T10:29:19.316Z,-0.70
2022-12-17T10:32:06.931Z,-0.60
2022-12-17T10:34:54.618Z,-0.60
2022-12-17T10:37:47.360Z,-0.50
2022-12-17T10:40:41.147Z,-0.40
2022-12-17T10:43:40.267Z,-0.40
2022-12-17T10:46:30.516Z,-0.30
2022-12-17T10:49:27.128Z,-0.30
2022-12-17T10:52:16.393Z,-0.30
2022-12-17T10:55:19.503Z,-0.30
2022-12-17T10:58:10.437Z,-0.10
2022-12-17T11:00:58.034Z,-0.20
2022-12-17T11:03:53.841Z,-0.10
2022-12-17T11:06:44.833Z,0.00
2022-12-17T11:09:47.191Z,0.20
2022-12-17T11:12:39.546Z,0.20
2022-12-17T11:15:37.662Z,0.30
2022-12-17T11:18:32.326Z,0.20
2022-12-17T11:21:24.537Z,0.10
2022-12-17T11:24:20.638Z,0.10
2022-12-17T11:27:12.020Z,0.00
2022-12-17T11:30:00.221Z,0.00
2022-12-17T11:33:16.942Z,0.00
2022-12-17T11:36:14.582Z,1.20
2022-12-17T11:39:10.323Z,0.60
2022-12-17T11:42:11.229Z,0.20
2022-12-17T11:45:09.098Z,0.10
2022-12-17T11:48:03.041Z,0.10
2022-12-17T11:50:59.870Z,0.20
2022-12-17T11:54:02.642Z,0.20
2022-12-17T11:56:56.657Z,0.30
2022-12-17T11:59:52.910Z,0.40
2022-12-17T12:02:58.383Z,0.50
2022-12-17T12:05:57.410Z,0.50
2022-12-17T12:08:49.008Z,1.90
2022-12-17T12:11:45.863Z,0.50
2022-12-17T12:14:44.449Z,0.50
2022-12-17T12:17:46.093Z,0.50
2022-12-17T12:20:46.418Z,0.40
2022-12-17T12:23:51.409Z,0.40
2022-12-17T12:26:45.403Z,0.50
2022-12-17T12:29:43.088Z,0.50
2022-12-17T12:32:41.883Z,0.60
2022-12-17T12:35:34.917Z,0.60
2022-12-17T12:38:31.189Z,1.70
2022-12-17T12:41:34.957Z,0.50
2022-12-17T12:44:32.850Z,0.40
2022-12-17T12:47:28.381Z,0.30
2022-12-17T12:50:21.197Z,0.30
2022-12-17T12:53:09.185Z,0.20
2022-12-17T12:55:58.221Z,0.20
2022-12-17T12:59:04.523Z,0.20
2022-12-17T13:01:53.718Z,0.20
2022-12-17T13:04:49.238Z,0.30
2022-12-17T13:07:26.848Z,0.40
2022-12-17T13:10:03.197Z,0.40
2022-12-17T13:12:47.583Z,0.50
2022-12-17T13:15:33.775Z,0.40
2022-12-17T13:18:22.086Z,0.40
2022-12-17T13:21:03.557Z,0.40
2022-12-17T13:23:40.444Z,0.30
2022-12-17T13:26:23.621Z,0.20
2022-12-17T13:29:14.480Z,0.30
2022-12-17T13:32:05.734Z,0.30
2022-12-17T13:34:58.176Z,0.20
2022-12-17T13:37:43.389Z,0.20
2022-12-17T13:40:37.835Z,-0.10
2022-12-17T13:43:20.330Z,-0.30
2022-12-17T13:45:57.772Z,0.30
2022-12-17T13:48:36.037Z,-0.40
2022-12-17T13:51:23.149Z,-0.60
2022-12-17T13:53:59.910Z,-0.60
2022-12-17T13:56:37.287Z,-0.60
2022-12-17T13:59:22.106Z,-0.60
2022-12-17T14:01:58.040Z,-0.60
2022-12-17T14:04:36.405Z,-0.60
2022-12-17T14:07:11.787Z,-1.50
2022-12-17T14:09:47.496Z,-0.70
2022-12-17T14:12:23.696Z,-0.80
2022-12-17T14:15:02.455Z,-0.90
2022-12-17T14:17:43.388Z,-1.80
2022-12-17T14:20:23.680Z,-0.80
2022-12-17T14:23:02.436Z,0.10
2022-12-17T14:25:40.726Z,-0.80
2022-12-17T14:28:26.078Z,-0.80
2022-12-17T14:34:08.020Z,-0.70
2022-12-17T14:36:46.991Z,-0.70
2022-12-17T14:39:26.740Z,-1.00
2022-12-17T14:42:28.349Z,-0.90
2022-12-17T14:45:08.196Z,-0.90
2022-12-17T14:47:43.695Z,-0.90
2022-12-17T14:50:31.068Z,-0.90
2022-12-17T14:53:27.954Z,-0.90
2022-12-17T14:56:04.037Z,-0.90
2022-12-17T14:58:48.524Z,-0.90
2022-12-17T15:01:23.753Z,-0.90
2022-12-17T15:03:59.680Z,-0.90
2022-12-17T15:06:35.339Z,-0.90
2022-12-17T15:09:15.039Z,-0.90
2022-12-17T15:11:50.425Z,-0.90
2022-12-17T15:14:25.858Z,-1.00
2022-12-17T15:17:01.814Z,-1.00
2022-12-17T15:19:37.075Z,-1.00
2022-12-17T15:22:18.197Z,-0.90
2022-12-17T15:24:56.113Z,0.50
2022-12-17T15:27:31.674Z,-0.90
2022-12-17T15:30:07.851Z,-0.60
2022-12-17T15:32:43.691Z,-0.90
2022-12-17T15:35:19.008Z,-0.90
2022-12-17T15:37:54.922Z,-0.90
2022-12-17T15:40:33.272Z,-1.00
2022-12-17T15:43:13.557Z,-1.10
2022-12-17T15:45:51.184Z,-1.10
2022-12-17T15:48:26.693Z,-1.20
2022-12-17T15:51:02.093Z,-1.20
2022-12-17T15:53:37.869Z,-1.20
2022-12-17T15:56:23.413Z,-1.20
2022-12-17T15:59:00.392Z,-0.70
2022-12-17T16:01:36.585Z,-1.20
2022-12-17T16:04:17.836Z,-1.20
2022-12-17T16:06:58.255Z,-1.30
2022-12-17T16:09:33.655Z,-1.30
2022-12-17T16:12:11.576Z,-1.40
2022-12-17T16:14:47.195Z,0.00
2022-12-17T16:17:22.478Z,-1.40
2022-12-17T16:19:58.211Z,-1.40
2022-12-17T16:22:33.297Z,-1.40
2022-12-17T16:25:09.489Z,-1.50
2022-12-17T16:27:47.473Z,-1.60
2022-12-17T16:30:22.900Z,-1.70
2022-12-17T16:33:00.735Z,-1.90
2022-12-17T16:35:35.862Z,-1.90
2022-12-17T16:38:11.614Z,-2.80
2022-12-17T16:40:50.565Z,-2.20
2022-12-17T16:43:29.281Z,-2.30
2022-12-17T16:46:10.588Z,-3.10
2022-12-17T16:48:47.601Z,-2.40
2022-12-17T16:51:28.866Z,-1.90
2022-12-17T16:54:08.413Z,-2.50
2022-12-17T16:56:45.047Z,-2.60
2022-12-17T16:59:23.582Z,-1.10
2022-12-17T17:02:00.468Z,-2.70
2022-12-17T17:04:35.972Z,-2.70
2022-12-17T17:07:12.120Z,-2.70
2022-12-17T17:09:48.396Z,-2.70
2022-12-17T17:12:23.597Z,-2.70
2022-12-17T17:15:01.915Z,-2.60
2022-12-17T17:17:55.542Z,-2.40
2022-12-17T17:20:32.824Z,-2.20
2022-12-17T17:23:07.873Z,-3.70
2022-12-17T17:25:57.990Z,-2.10
2022-12-17T17:28:34.008Z,-2.10
2022-12-17T17:31:15.233Z,-2.10
2022-12-17T17:33:52.525Z,-1.90
2022-12-17T17:36:29.556Z,-1.90
2022-12-17T17:39:05.034Z,-1.90
2022-12-17T17:41:40.491Z,-1.90
2022-12-17T17:44:16.713Z,-1.90
2022-12-17T17:46:54.360Z,-1.90
2022-12-17T17:49:29.723Z,-2.60
2022-12-17T17:52:09.818Z,-2.10
2022-12-17T17:54:46.037Z,-2.20
2022-12-17T17:57:21.994Z,-2.40
2022-12-17T17:59:57.421Z,-2.00
2022-12-17T18:02:35.598Z,-2.60
2022-12-17T18:05:11.928Z,-2.70
2022-12-17T18:07:48.032Z,-2.80
2022-12-17T18:10:24.392Z,-3.00
2022-12-17T18:13:19.127Z,-3.10
2022-12-17T18:15:54.699Z,-3.10
2022-12-17T18:18:33.826Z,-3.20
2022-12-17T18:21:14.964Z,-3.20
2022-12-17T18:23:50.656Z,-2.30
2022-12-17T18:26:27.980Z,-3.40
2022-12-17T18:29:04.775Z,-3.30
2022-12-17T18:31:40.812Z,-1.70
2022-12-17T18:34:20.861Z,-3.10
2022-12-17T18:36:56.729Z,-3.10
2022-12-17T18:39:33.227Z,-3.20
2022-12-17T18:42:21.900Z,-3.20
2022-12-17T18:44:57.404Z,-3.30
2022-12-17T18:47:33.153Z,-3.40
2022-12-17T18:50:13.945Z,-3.40
2022-12-17T18:52:50.383Z,-3.40
2022-12-17T18:55:26.120Z,-3.50
2022-12-17T18:58:02.031Z,-3.60
2022-12-17T19:00:39.506Z,-3.40
2022-12-17T19:03:15.159Z,-3.60
2022-12-17T19:05:55.669Z,-3.90
2022-12-17T19:08:31.412Z,-3.70
2022-12-17T19:11:08.772Z,-2.70
2022-12-17T19:13:44.765Z,-3.80
2022-12-17T19:16:23.209Z,-3.90
2022-12-17T19:19:02.290Z,-3.80
2022-12-17T19:21:40.832Z,-5.10
2022-12-17T19:24:18.684Z,-3.90
2022-12-17T19:26:57.931Z,-4.00
2022-12-17T19:29:34.003Z,-4.10
2022-12-17T19:32:10.720Z,-4.30
2022-12-17T19:34:49.740Z,-4.30
2022-12-17T19:37:28.082Z,-4.30
2022-12-17T19:40:03.586Z,-4.40
2022-12-17T19:42:40.322Z,-4.40
2022-12-17T19:45:15.695Z,-4.40
2022-12-17T19:47:51.657Z,-4.40
2022-12-17T19:50:27.560Z,-4.40
2022-12-17T19:53:06.769Z,-4.50
2022-12-17T19:55:42.457Z,-4.00
2022-12-17T19:58:17.784Z,-4.60
2022-12-17T20:00:53.829Z,-4.70
2022-12-17T20:03:30.141Z,-4.70
2022-12-17T20:06:09.501Z,-4.80
2022-12-17T20:08:47.549Z,-4.80
2022-12-17T20:11:45.334Z,-4.80
2022-12-17T20:14:22.653Z,-4.90
2022-12-17T20:16:59.514Z,-5.00
2022-12-17T20:19:37.542Z,-5.00
